createdAt,value
2023-05-03T00:02:24.011Z,39.70
2023-05-03T00:04:58.025Z,39.70
2023-05-03T00:07:28.270Z,39.55
2023-05-03T00:09:58.371Z,39.51
2023-05-03T00:12:29.306Z,39.48
2023-05-03T00:14:59.173Z,39.64
2023-05-03T00:17:32.340Z,39.66
2023-05-03T00:20:05.778Z,39.64
2023-05-03T00:22:35.884Z,39.66
2023-05-03T00:25:07.222Z,39.59
2023-05-03T00:27:37.470Z,39.49
2023-05-03T00:30:08.581Z,39.43
2023-05-03T00:32:41.878Z,39.37
2023-05-03T00:35:32.333Z,39.57
2023-05-03T00:38:15.116Z,39.53
2023-05-03T00:41:26.322Z,39.54
2023-05-03T00:44:14.241Z,39.50
2023-05-03T00:47:22.085Z,39.48
2023-05-03T00:50:34.482Z,39.46
2023-05-03T00:53:13.903Z,38.36
2023-05-03T00:58:33.861Z,38.39
2023-05-03T01:01:05.409Z,38.62
2023-05-03T01:03:38.555Z,38.76
2023-05-03T01:06:17.134Z,38.85
2023-05-03T01:08:49.848Z,38.88
2023-05-03T01:11:22.465Z,38.93
2023-05-03T01:14:30.447Z,38.96
2023-05-03T01:17:31.845Z,38.97
2023-05-03T01:20:55.142Z,39.00
2023-05-03T01:24:10.099Z,39.01
2023-05-03T01:26:50.915Z,39.03
2023-05-03T01:29:41.094Z,39.08
2023-05-03T01:36:01.716Z,39.08
2023-05-03T01:38:38.152Z,39.12
2023-05-03T01:49:47.230Z,39.09
2023-05-03T01:52:18.897Z,39.07
2023-05-03T01:54:49.024Z,39.09
2023-05-03T01:57:19.175Z,39.10
2023-05-03T01:59:49.166Z,39.12
2023-05-03T02:02:58.663Z,39.13
2023-05-03T02:05:28.866Z,39.13
2023-05-03T02:14:51.510Z,39.13
2023-05-03T02:17:36.727Z,39.13
2023-05-03T02:20:41.464Z,39.15
2023-05-03T02:23:28.237Z,39.16
2023-05-03T02:28:48.607Z,39.15
2023-05-03T02:31:20.399Z,39.15
2023-05-03T02:33:50.790Z,39.14
2023-05-03T02:36:21.103Z,39.11
2023-05-03T02:38:53.908Z,39.10
2023-05-03T02:44:52.653Z,39.05
2023-05-03T02:47:45.263Z,39.12
2023-05-03T02:50:37.360Z,39.10
2023-05-03T02:53:27.077Z,39.04
2023-05-03T02:55:58.183Z,39.04
2023-05-03T02:58:28.316Z,39.01
2023-05-03T03:01:04.340Z,38.97
2023-05-03T03:03:36.536Z,38.98
2023-05-03T03:06:09.156Z,39.02
2023-05-03T03:08:40.733Z,39.04
2023-05-03T03:12:16.828Z,39.03
2023-05-03T03:14:56.565Z,39.03
2023-05-03T03:17:56.260Z,39.04
2023-05-03T03:21:03.687Z,38.99
2023-05-03T03:27:17.847Z,39.04
2023-05-03T03:29:42.167Z,39.05
2023-05-03T03:32:36.855Z,39.03
2023-05-03T03:38:02.426Z,39.04
2023-05-03T03:40:35.676Z,39.02
2023-05-03T03:43:08.706Z,38.99
2023-05-03T03:45:44.222Z,39.03
2023-05-03T03:48:13.254Z,39.01
2023-05-03T03:51:05.803Z,38.99
2023-05-03T03:54:23.678Z,38.97
2023-05-03T03:57:12.638Z,38.97
2023-05-03T04:00:29.770Z,38.94
2023-05-03T04:03:34.476Z,38.96
2023-05-03T04:06:25.194Z,38.97
2023-05-03T04:09:19.438Z,38.95
2023-05-03T04:12:09.617Z,38.94
2023-05-03T04:15:01.273Z,38.92
2023-05-03T04:18:21.191Z,38.92
2023-05-03T04:21:42.341Z,38.90
2023-05-03T04:24:37.688Z,38.89
2023-05-03T04:27:34.164Z,38.88
2023-05-03T04:30:06.383Z,38.88
2023-05-03T04:33:04.183Z,38.85
2023-05-03T04:36:09.840Z,38.84
2023-05-03T04:38:56.900Z,38.83
2023-05-03T04:44:53.735Z,38.80
2023-05-03T04:56:57.499Z,38.77
2023-05-03T05:00:10.343Z,38.79
2023-05-03T05:03:26.781Z,38.77
2023-05-03T05:06:19.650Z,38.73
2023-05-03T05:08:58.385Z,38.74
2023-05-03T05:21:04.381Z,38.73
2023-05-03T05:24:09.146Z,38.72
2023-05-03T05:27:44.682Z,38.74
2023-05-03T05:32:59.750Z,38.74
2023-05-03T05:36:07.331Z,38.73
2023-05-03T05:38:04.071Z,38.76
2023-05-03T06:08:53.905Z,38.74
2023-05-03T06:11:23.784Z,38.76
2023-05-03T06:13:53.652Z,38.77
2023-05-03T06:16:23.669Z,38.76
2023-05-03T06:18:53.649Z,38.74
2023-05-03T06:21:31.193Z,38.73
2023-05-03T06:27:33.573Z,38.71
2023-05-03T06:30:31.705Z,38.70
2023-05-03T06:33:20.330Z,38.68
2023-05-03T06:35:48.576Z,38.69
2023-05-03T06:38:20.179Z,38.67
2023-05-03T06:40:51.272Z,38.69
2023-05-03T06:43:22.677Z,38.69
2023-05-03T06:45:57.046Z,38.68
2023-05-03T06:48:42.094Z,38.63
2023-05-03T06:51:31.733Z,38.63
2023-05-03T06:56:38.447Z,38.63
2023-05-03T06:59:10.064Z,38.63
2023-05-03T07:01:40.047Z,38.64
2023-05-03T07:04:10.127Z,38.62
2023-05-03T07:06:55.872Z,38.63
2023-05-03T07:09:43.699Z,38.60
2023-05-03T07:12:31.881Z,38.60
2023-05-03T07:15:01.817Z,38.59
2023-05-03T07:17:31.883Z,38.55
2023-05-03T07:20:03.867Z,38.61
2023-05-03T07:22:34.704Z,38.55
2023-05-03T07:25:06.587Z,38.55
2023-05-03T07:27:37.567Z,38.56
2023-05-03T07:35:58.777Z,38.53
2023-05-03T07:38:28.703Z,38.50
2023-05-03T07:40:58.709Z,38.52
2023-05-03T07:43:28.572Z,38.51
2023-05-03T07:45:59.636Z,38.49
2023-05-03T07:52:16.896Z,38.51
2023-05-03T07:55:37.249Z,38.47
2023-05-03T07:58:38.814Z,38.48
2023-05-03T08:00:56.506Z,38.41
2023-05-03T08:07:03.923Z,38.42
2023-05-03T08:10:06.272Z,38.38
2023-05-03T08:12:42.439Z,38.37
2023-05-03T08:15:12.621Z,38.36
2023-05-03T08:17:43.771Z,38.33
2023-05-03T08:20:15.486Z,38.40
2023-05-03T08:22:47.423Z,38.37
2023-05-03T08:25:18.390Z,38.39
2023-05-03T08:28:15.672Z,38.30
2023-05-03T08:33:59.749Z,38.25
2023-05-03T08:39:53.494Z,38.30
2023-05-03T08:42:52.356Z,38.25
2023-05-03T08:49:02.159Z,38.22
2023-05-03T08:51:40.695Z,38.25
2023-05-03T08:54:14.910Z,38.21
2023-05-03T08:56:45.509Z,38.23
2023-05-03T08:59:17.007Z,38.20
2023-05-03T09:01:47.076Z,38.16
2023-05-03T09:04:18.415Z,38.18
2023-05-03T09:06:57.683Z,38.18
2023-05-03T09:10:02.477Z,38.16
2023-05-03T09:13:14.166Z,38.15
2023-05-03T09:16:03.261Z,38.15
2023-05-03T09:18:59.414Z,38.12
2023-05-03T09:21:54.349Z,38.13
2023-05-03T09:24:52.983Z,38.07
2023-05-03T09:26:58.076Z,38.13
2023-05-03T09:29:36.514Z,38.09
2023-05-03T09:32:08.209Z,38.14
2023-05-03T09:34:39.045Z,38.07
2023-05-03T09:37:11.000Z,38.08
2023-05-03T09:40:13.773Z,38.08
2023-05-03T09:43:12.424Z,38.10
2023-05-03T09:46:09.998Z,38.09
2023-05-03T09:48:59.283Z,37.98
2023-05-03T09:51:29.277Z,38.06
2023-05-03T09:54:00.699Z,38.01
2023-05-03T09:56:30.686Z,38.09
2023-05-03T10:02:10.208Z,37.95
2023-05-03T10:04:43.011Z,37.93
2023-05-03T10:10:36.419Z,37.91
2023-05-03T10:13:23.258Z,37.91
2023-05-03T10:16:33.743Z,37.93
2023-05-03T10:19:34.661Z,37.95
2023-05-03T10:22:15.028Z,37.90
2023-05-03T10:25:26.243Z,37.97
2023-05-03T10:28:26.671Z,37.91
2023-05-03T10:31:27.071Z,37.87
2023-05-03T10:34:25.575Z,37.99
2023-05-03T10:37:29.206Z,37.96
2023-05-03T10:43:38.268Z,37.85
2023-05-03T10:46:32.694Z,37.82
2023-05-03T10:49:22.283Z,37.89
2023-05-03T10:58:17.442Z,37.85
2023-05-03T11:01:20.893Z,37.84
2023-05-03T11:04:19.630Z,37.82
2023-05-03T11:07:49.744Z,37.87
2023-05-03T11:10:20.408Z,37.85
2023-05-03T11:13:29.358Z,37.80
2023-05-03T11:16:37.341Z,37.80
2023-05-03T11:19:46.071Z,37.78
2023-05-03T11:22:39.446Z,37.79
2023-05-03T11:25:34.274Z,37.73
2023-05-03T11:31:43.880Z,37.75
2023-05-03T11:34:16.413Z,37.71
2023-05-03T11:36:46.486Z,37.75
2023-05-03T11:39:18.740Z,37.74
2023-05-03T11:41:49.661Z,37.73
2023-05-03T11:44:19.629Z,37.70
2023-05-03T11:47:03.664Z,37.73
2023-05-03T11:49:37.283Z,37.67
2023-05-03T11:52:50.772Z,37.68
2023-05-03T11:55:35.567Z,37.68
2023-05-03T12:04:57.938Z,37.68
2023-05-03T12:07:52.956Z,37.71
2023-05-03T12:11:26.055Z,37.74
2023-05-03T12:14:00.896Z,37.71
2023-05-03T12:16:53.642Z,37.81
2023-05-03T12:19:44.008Z,37.77
2023-05-03T12:22:41.324Z,37.85
2023-05-03T12:28:39.322Z,37.82
2023-05-03T12:35:07.644Z,37.84
2023-05-03T12:38:09.718Z,37.90
2023-05-03T12:40:52.294Z,37.85
2023-05-03T12:43:43.630Z,37.80
2023-05-03T12:46:45.209Z,37.78
2023-05-03T12:49:29.617Z,37.85
2023-05-03T12:54:55.266Z,37.88
2023-05-03T12:57:24.045Z,37.89
2023-05-03T13:00:02.068Z,37.91
2023-05-03T13:05:03.745Z,37.88
2023-05-03T13:11:26.335Z,37.87
2023-05-03T13:16:58.058Z,37.87
2023-05-03T13:20:07.780Z,37.88
2023-05-03T13:23:15.580Z,37.90
2023-05-03T13:26:07.730Z,37.94
2023-05-03T13:29:10.549Z,37.92
2023-05-03T13:31:48.900Z,37.89
2023-05-03T13:35:03.592Z,37.89
2023-05-03T13:37:52.946Z,37.86
2023-05-03T13:41:09.689Z,37.96
2023-05-03T13:50:10.248Z,37.86
2023-05-03T13:53:03.603Z,37.84
2023-05-03T13:56:16.702Z,37.86
2023-05-03T13:59:20.453Z,37.85
2023-05-03T14:01:57.178Z,37.90
2023-05-03T14:11:06.127Z,37.82
2023-05-03T14:13:55.475Z,37.84
2023-05-03T14:16:53.902Z,37.82
2023-05-03T14:19:54.626Z,37.84
2023-05-03T14:22:57.860Z,37.81
2023-05-03T14:26:20.255Z,37.77
2023-05-03T14:29:09.594Z,37.77
2023-05-03T14:31:59.997Z,37.75
2023-05-03T14:34:51.515Z,37.76
2023-05-03T14:41:28.128Z,37.74
2023-05-03T14:44:23.561Z,37.75
2023-05-03T14:47:24.832Z,37.75
2023-05-03T14:50:21.005Z,37.84
2023-05-03T14:53:04.590Z,37.78
2023-05-03T14:58:57.510Z,37.84
2023-05-03T15:02:13.045Z,37.82
2023-05-03T15:05:08.201Z,37.82
2023-05-03T15:08:13.393Z,37.88
2023-05-03T15:14:10.945Z,37.92
2023-05-03T15:17:03.822Z,37.92
2023-05-03T15:20:06.248Z,37.93
2023-05-03T15:26:26.224Z,37.97
2023-05-03T15:29:00.922Z,37.97
2023-05-03T15:34:19.279Z,38.01
2023-05-03T15:36:49.159Z,38.02
2023-05-03T15:39:19.155Z,38.03
2023-05-03T15:41:49.148Z,38.04
2023-05-03T15:44:38.646Z,38.07
2023-05-03T15:47:13.153Z,38.08
2023-05-03T15:50:20.561Z,38.06
2023-05-03T15:53:28.449Z,38.06
2023-05-03T15:59:16.305Z,38.10
2023-05-03T16:08:39.906Z,38.12
2023-05-03T16:11:25.080Z,38.14
2023-05-03T16:14:27.910Z,38.15
2023-05-03T16:17:04.526Z,38.18
2023-05-03T16:19:34.660Z,38.19
2023-05-03T16:22:04.621Z,38.20
2023-05-03T16:27:27.144Z,38.19
2023-05-03T16:29:57.105Z,38.18
2023-05-03T16:32:50.889Z,38.19
2023-05-03T16:35:57.639Z,38.22
2023-05-03T16:38:45.816Z,38.21
2023-05-03T16:44:19.993Z,38.23
2023-05-03T16:47:05.192Z,38.24
2023-05-03T16:49:38.062Z,38.25
2023-05-03T16:52:09.113Z,38.29
2023-05-03T16:54:39.458Z,38.27
2023-05-03T16:57:10.463Z,38.27
2023-05-03T16:59:40.329Z,38.32
2023-05-03T17:02:14.171Z,38.36
2023-05-03T17:07:21.117Z,38.35
2023-05-03T17:09:51.170Z,38.31
2023-05-03T17:12:22.192Z,38.33
2023-05-03T17:14:52.170Z,38.34
2023-05-03T17:17:33.306Z,38.37
2023-05-03T17:20:17.112Z,38.34
2023-05-03T17:25:37.773Z,38.37
2023-05-03T17:28:07.766Z,38.38
2023-05-03T17:30:42.600Z,38.40
2023-05-03T17:33:12.967Z,38.39
2023-05-03T17:36:06.435Z,38.40
2023-05-03T17:39:10.822Z,38.40
2023-05-03T17:41:47.299Z,38.41
2023-05-03T17:47:38.094Z,38.44
2023-05-03T17:50:38.708Z,38.42
2023-05-03T17:53:35.773Z,38.44
2023-05-03T18:02:45.126Z,38.49
2023-05-03T18:05:24.418Z,38.50
2023-05-03T18:09:18.984Z,38.54
2023-05-03T18:10:26.019Z,38.54
2023-05-03T18:12:57.628Z,38.56
2023-05-03T18:15:28.985Z,38.57
2023-05-03T18:18:25.064Z,38.75
2023-05-03T18:23:39.853Z,38.58
2023-05-03T18:26:43.182Z,38.58
2023-05-03T18:29:35.083Z,38.63
2023-05-03T18:35:44.172Z,38.62
2023-05-03T18:38:31.705Z,38.65
2023-05-03T18:43:50.183Z,38.64
2023-05-03T18:46:20.903Z,38.64
2023-05-03T18:48:50.868Z,38.64
2023-05-03T18:51:20.975Z,38.63
2023-05-03T18:54:06.743Z,38.63
2023-05-03T18:59:03.172Z,38.63
2023-05-03T19:01:33.329Z,38.63
2023-05-03T19:04:04.810Z,38.63
2023-05-03T19:06:34.900Z,38.64
2023-05-03T19:09:06.363Z,38.63
2023-05-03T19:11:46.578Z,38.63
2023-05-03T19:14:46.856Z,38.65
2023-05-03T19:18:14.755Z,38.66
2023-05-03T19:21:16.784Z,38.67
2023-05-03T19:26:57.305Z,38.69
2023-05-03T19:30:18.691Z,38.69
2023-05-03T19:38:48.014Z,38.73
2023-05-03T19:44:42.511Z,38.77
2023-05-03T19:47:23.088Z,38.76
2023-05-03T19:49:44.219Z,38.78
2023-05-03T19:52:14.295Z,38.78
2023-05-03T19:54:44.184Z,38.75
2023-05-03T19:57:14.031Z,38.77
2023-05-03T20:00:05.587Z,38.76
2023-05-03T20:03:03.415Z,38.77
2023-05-03T20:05:53.485Z,38.76
2023-05-03T20:09:03.586Z,38.78
2023-05-03T20:21:24.984Z,38.81
2023-05-03T20:24:15.600Z,38.80
2023-05-03T20:27:10.244Z,38.81
2023-05-03T20:30:09.818Z,38.83
2023-05-03T20:33:10.227Z,38.85
2023-05-03T20:36:10.558Z,38.84
2023-05-03T20:38:55.772Z,38.84
2023-05-03T20:44:14.569Z,38.86
2023-05-03T20:46:46.562Z,38.87
2023-05-03T20:49:16.505Z,38.87
2023-05-03T20:51:47.943Z,38.89
2023-05-03T20:54:44.454Z,38.88
2023-05-03T21:00:05.671Z,38.87
2023-05-03T21:03:13.562Z,38.88
2023-05-03T21:05:50.758Z,38.88
2023-05-03T21:08:20.561Z,38.88
2023-05-03T21:10:50.619Z,38.87
2023-05-03T21:13:21.946Z,38.86
2023-05-03T21:15:51.939Z,38.89
2023-05-03T21:18:49.662Z,38.88
2023-05-03T21:21:46.461Z,38.86
2023-05-03T21:24:16.877Z,38.89
2023-05-03T21:27:23.021Z,38.89
2023-05-03T21:39:29.553Z,38.91
2023-05-03T21:42:50.810Z,38.92
2023-05-03T21:45:49.734Z,38.93
2023-05-03T21:49:01.669Z,38.95
2023-05-03T21:51:33.535Z,38.94
2023-05-03T21:54:35.694Z,38.97
2023-05-03T22:00:41.437Z,39.00
2023-05-03T22:03:40.639Z,39.00
2023-05-03T22:06:28.833Z,39.06
2023-05-03T22:09:42.113Z,39.06
2023-05-03T22:12:40.779Z,39.07
2023-05-03T22:15:58.313Z,39.07
2023-05-03T22:18:32.818Z,39.09
2023-05-03T22:21:38.061Z,39.12
2023-05-03T22:27:25.752Z,39.14
2023-05-03T22:30:22.126Z,39.13
2023-05-03T22:33:20.988Z,39.15
2023-05-03T22:42:29.163Z,39.14
2023-05-03T22:46:01.930Z,39.14
2023-05-03T22:48:39.421Z,39.16
2023-05-03T22:51:16.531Z,39.18
2023-05-03T22:56:36.090Z,39.19
2023-05-03T22:59:06.356Z,39.18
2023-05-03T23:01:36.364Z,39.19
2023-05-03T23:04:06.496Z,39.18
2023-05-03T23:06:57.858Z,39.18
2023-05-03T23:10:09.844Z,39.17
2023-05-03T23:12:41.630Z,39.17
2023-05-03T23:15:32.421Z,39.17
2023-05-03T23:18:20.740Z,39.17
2023-05-03T23:20:50.968Z,39.17
2023-05-03T23:23:22.376Z,39.17
2023-05-03T23:25:53.867Z,39.18
2023-05-03T23:28:24.276Z,39.18
2023-05-03T23:31:31.649Z,39.18
2023-05-03T23:34:01.779Z,39.19
2023-05-03T23:37:15.225Z,39.19
2023-05-03T23:40:24.428Z,39.21
2023-05-03T23:45:50.236Z,39.25
2023-05-03T23:48:54.681Z,39.27
2023-05-03T23:51:28.854Z,39.26
2023-05-03T23:56:50.846Z,39.27
2023-05-03T23:59:20.734Z,39.30
